Time;durP1;ratioP1;P1;durP2;ratioP2;P2;SDS_P1;SDS_P2;PMS_P1;PMS_P2;Temp;Humidity;BMP_temperature;BMP_pressure;BME280_temperature;BME280_humidity;BME280_pressure;Samples;Min_cycle;Max_cycle;Signal;HPM_P1;HPM_P2
2023/04/08 00:00:56;;;;;;;32.33;16.87;;;;;;;;;;6172391;28;20018;-82
2023/04/08 00:03:56;;;;;;;33.67;16.27;;;;;;;;;;6171714;28;20022;-82
2023/04/08 00:06:57;;;;;;;28.58;15.05;;;;;;;;;;6172467;28;20094;-82
2023/04/08 00:09:57;;;;;;;28.17;15.13;;;;;;;;;;6174596;28;20019;-81
2023/04/08 00:12:57;;;;;;;25.47;13.90;;;;;;;;;;6170651;28;20043;-83
2023/04/08 00:15:58;;;;;;;28.10;15.43;;;;;;;;;;6149307;28;20518;-82
2023/04/08 00:18:59;;;;;;;23.58;13.63;;;;;;;;;;6170358;28;20022;-82
2023/04/08 00:21:59;;;;;;;26.33;15.53;;;;;;;;;;6168766;28;20058;-83
2023/04/08 00:25:00;;;;;;;26.37;15.03;;;;;;;;;;6170077;28;20053;-83
2023/04/08 00:28:00;;;;;;;27.05;15.07;;;;;;;;;;6169722;28;20033;-83
2023/04/08 00:31:01;;;;;;;29.90;18.03;;;;;;;;;;6169893;28;20014;-84
2023/04/08 00:34:01;;;;;;;30.80;16.23;;;;;;;;;;6171850;28;20049;-83
2023/04/08 00:37:01;;;;;;;27.67;16.07;;;;;;;;;;6171220;28;20018;-84
2023/04/08 00:40:02;;;;;;;38.13;19.57;;;;;;;;;;6170835;28;20046;-84
2023/04/08 00:43:03;;;;;;;32.65;17.92;;;;;;;;;;6175583;28;20106;-83
2023/04/08 00:46:03;;;;;;;31.30;19.13;;;;;;;;;;6172713;28;20523;-84
2023/04/08 00:49:04;;;;;;;42.13;20.80;;;;;;;;;;6172282;28;20033;-83
2023/04/08 00:52:04;;;;;;;39.67;18.93;;;;;;;;;;6172459;28;20030;-84
2023/04/08 00:55:05;;;;;;;35.37;21.60;;;;;;;;;;6174011;28;20436;-82
2023/04/08 00:58:05;;;;;;;44.63;25.23;;;;;;;;;;6154150;28;20027;-84
2023/04/08 01:01:17;;;;;;;47.20;22.63;;;;;;;;;;6172213;28;20030;-83
2023/04/08 01:04:36;;;;;;;41.72;22.80;;;;;;;;;;6171899;28;20467;-83
2023/04/08 01:07:39;;;;;;;45.22;24.40;;;;;;;;;;6170867;28;20027;-83
2023/04/08 01:10:43;;;;;;;41.00;24.55;;;;;;;;;;6169562;28;20117;-83
2023/04/08 01:13:44;;;;;;;45.30;23.33;;;;;;;;;;6170150;28;20017;-85
2023/04/08 01:16:45;;;;;;;45.67;23.00;;;;;;;;;;6171260;28;20421;-84
2023/04/08 01:19:46;;;;;;;44.17;24.97;;;;;;;;;;6154450;28;20026;-83
2023/04/08 01:23:05;;;;;;;37.33;21.08;;;;;;;;;;6171989;28;20023;-84
2023/04/08 01:26:05;;;;;;;41.50;23.80;;;;;;;;;;6172013;28;20035;-84
2023/04/08 01:29:07;;;;;;;41.97;23.37;;;;;;;;;;6172568;28;20034;-78
2023/04/08 01:32:07;;;;;;;42.33;23.58;;;;;;;;;;6169645;28;20081;-86
2023/04/08 01:35:08;;;;;;;43.57;24.40;;;;;;;;;;6155542;28;20023;-84
2023/04/08 01:38:10;;;;;;;41.10;23.90;;;;;;;;;;6172457;28;20031;-86
2023/04/08 01:41:10;;;;;;;45.55;24.52;;;;;;;;;;6171492;28;20057;-85
2023/04/08 01:44:12;;;;;;;43.40;23.17;;;;;;;;;;6165365;28;20029;-86
2023/04/08 01:47:13;;;;;;;47.70;25.50;;;;;;;;;;6173152;28;20023;-82
2023/04/08 01:50:14;;;;;;;44.37;24.80;;;;;;;;;;6172304;28;20018;-86
2023/04/08 01:53:15;;;;;;;42.70;23.38;;;;;;;;;;6172656;28;20051;-82
2023/04/08 01:56:15;;;;;;;32.33;19.87;;;;;;;;;;6174718;28;20019;-83
2023/04/08 01:59:16;;;;;;;35.73;19.43;;;;;;;;;;6174487;28;20019;-85
2023/04/08 02:02:17;;;;;;;42.70;24.97;;;;;;;;;;6160477;28;20034;-85
2023/04/08 02:05:17;;;;;;;42.23;23.73;;;;;;;;;;6173202;28;20015;-84
2023/04/08 02:08:17;;;;;;;41.63;23.77;;;;;;;;;;6181892;28;20090;-86
2023/04/08 02:11:17;;;;;;;41.60;23.37;;;;;;;;;;6154353;28;20051;-85
2023/04/08 02:14:18;;;;;;;39.57;22.80;;;;;;;;;;6148899;28;20023;-85
2023/04/08 02:17:30;;;;;;;40.67;21.20;;;;;;;;;;6165034;28;20011;-83
2023/04/08 02:20:36;;;;;;;39.22;22.08;;;;;;;;;;6188080;28;20019;-85
2023/04/08 02:23:38;;;;;;;36.90;20.05;;;;;;;;;;6155833;28;20386;-85
2023/04/08 02:26:38;;;;;;;;;;;;;;;;;;6155264;28;20024;-86
2023/04/08 02:29:39;;;;;;;40.03;22.95;;;;;;;;;;6159523;28;19922;-86
2023/04/08 02:32:40;;;;;;;35.80;21.77;;;;;;;;;;6176548;28;20016;-84
2023/04/08 02:35:40;;;;;;;35.60;19.23;;;;;;;;;;6175622;28;20343;-84
2023/04/08 02:38:40;;;;;;;38.83;20.37;;;;;;;;;;6155722;28;20023;-83
2023/04/08 02:41:40;;;;;;;35.23;20.87;;;;;;;;;;6152358;28;20019;-83
2023/04/08 02:44:41;;;;;;;27.27;16.07;;;;;;;;;;6152580;28;20019;-83
2023/04/08 02:47:41;;;;;;;36.43;20.80;;;;;;;;;;6154819;28;20019;-83
2023/04/08 02:50:41;;;;;;;38.43;21.93;;;;;;;;;;6166882;28;20026;-84
2023/04/08 02:53:41;;;;;;;38.37;20.87;;;;;;;;;;6151556;28;20035;-85
2023/04/08 02:56:41;;;;;;;41.53;21.67;;;;;;;;;;6165340;28;20158;-85
2023/04/08 02:59:42;;;;;;;42.53;20.37;;;;;;;;;;6151207;28;20505;-85
2023/04/08 03:02:42;;;;;;;42.50;20.08;;;;;;;;;;6154320;28;20023;-84
2023/04/08 03:05:42;;;;;;;39.23;19.70;;;;;;;;;;6150866;28;20020;-85
2023/04/08 03:08:42;;;;;;;36.80;19.80;;;;;;;;;;6165704;28;20026;-83
2023/04/08 03:11:43;;;;;;;39.03;21.13;;;;;;;;;;6149373;28;20078;-85
2023/04/08 03:14:43;;;;;;;37.83;19.53;;;;;;;;;;6150718;28;20102;-84
2023/04/08 03:17:44;;;;;;;36.37;19.03;;;;;;;;;;6147947;28;20015;-85
2023/04/08 03:20:44;;;;;;;32.30;17.67;;;;;;;;;;6155929;28;20066;-85
2023/04/08 03:23:44;;;;;;;29.87;16.93;;;;;;;;;;6157001;28;20034;-85
2023/04/08 03:26:45;;;;;;;29.58;16.70;;;;;;;;;;6156063;28;20015;-85
2023/04/08 03:29:45;;;;;;;29.73;16.07;;;;;;;;;;6151740;28;20398;-85
2023/04/08 03:32:46;;;;;;;32.13;17.27;;;;;;;;;;6159551;28;20019;-84
2023/04/08 03:35:46;;;;;;;38.10;17.10;;;;;;;;;;6156189;28;20110;-84
2023/04/08 03:38:46;;;;;;;30.33;16.10;;;;;;;;;;6151754;28;20032;-83
2023/04/08 03:41:46;;;;;;;31.83;17.07;;;;;;;;;;6149181;28;20486;-83
2023/04/08 03:44:47;;;;;;;39.75;15.98;;;;;;;;;;6149783;28;20071;-84
2023/04/08 03:47:47;;;;;;;32.63;15.77;;;;;;;;;;6165700;28;20409;-84
2023/04/08 03:50:49;;;;;;;32.97;16.67;;;;;;;;;;6149195;28;20026;-82
2023/04/08 03:53:49;;;;;;;;;;;;;;;;;;6149100;28;20591;-83
2023/04/08 03:56:49;;;;;;;30.58;16.15;;;;;;;;;;6149031;28;20013;-83
2023/04/08 03:59:49;;;;;;;35.97;16.83;;;;;;;;;;6148509;28;20023;-83
2023/04/08 04:02:50;;;;;;;29.33;16.37;;;;;;;;;;6153375;28;20126;-83
2023/04/08 04:05:50;;;;;;;35.47;17.00;;;;;;;;;;6147646;28;20154;-83
2023/04/08 04:08:52;;;;;;;30.97;16.90;;;;;;;;;;6162626;28;20053;-82
2023/04/08 04:11:53;;;;;;;31.55;16.33;;;;;;;;;;6144598;28;20051;-83
2023/04/08 04:14:54;;;;;;;36.03;17.20;;;;;;;;;;6147960;28;20007;-82
2023/04/08 04:17:54;;;;;;;29.70;15.97;;;;;;;;;;6146245;29;20122;-84
2023/04/08 04:20:54;;;;;;;35.58;17.23;;;;;;;;;;6162543;28;20073;-84
2023/04/08 04:23:55;;;;;;;34.90;16.95;;;;;;;;;;6147989;28;20036;-82
2023/04/08 04:26:55;;;;;;;25.93;13.93;;;;;;;;;;6141891;29;20106;-82
2023/04/08 04:29:55;;;;;;;42.90;19.67;;;;;;;;;;6162517;28;20027;-81
2023/04/08 04:32:56;;;;;;;32.77;16.53;;;;;;;;;;6147767;28;20066;-81
2023/04/08 04:35:56;;;;;;;32.60;17.03;;;;;;;;;;6144604;28;20110;-81
2023/04/08 04:38:56;;;;;;;34.10;18.63;;;;;;;;;;6144532;28;20502;-81
2023/04/08 04:41:57;;;;;;;36.10;17.73;;;;;;;;;;6146276;28;20027;-82
2023/04/08 04:44:57;;;;;;;35.70;19.03;;;;;;;;;;6146981;28;20134;-81
2023/04/08 04:47:59;;;;;;;40.17;19.43;;;;;;;;;;6147136;29;20102;-81
2023/04/08 04:51:02;;;;;;;33.42;17.38;;;;;;;;;;6161359;28;20023;-81
2023/04/08 04:54:02;;;;;;;32.20;18.77;;;;;;;;;;6145955;28;20046;-81
2023/04/08 04:57:02;;;;;;;32.70;17.27;;;;;;;;;;6146961;28;20023;-82
2023/04/08 05:00:02;;;;;;;39.53;21.37;;;;;;;;;;6139204;28;20402;-80
2023/04/08 05:03:03;;;;;;;28.30;15.37;;;;;;;;;;6140153;28;20391;-81
2023/04/08 05:06:03;;;;;;;37.03;19.20;;;;;;;;;;6140233;28;20011;-80
2023/04/08 05:09:04;;;;;;;34.57;16.97;;;;;;;;;;6139170;28;20050;-81
2023/04/08 05:12:04;;;;;;;35.87;17.97;;;;;;;;;;6155411;28;20145;-81
2023/04/08 05:15:05;;;;;;;32.97;19.03;;;;;;;;;;6162262;28;20062;-81
2023/04/08 05:18:05;;;;;;;31.57;16.67;;;;;;;;;;6150640;28;20029;-80
2023/04/08 05:21:05;;;;;;;32.23;16.57;;;;;;;;;;6172740;28;20628;-80
2023/04/08 05:24:06;;;;;;;31.10;16.67;;;;;;;;;;6173041;28;20021;-80
2023/04/08 05:27:06;;;;;;;27.53;14.90;;;;;;;;;;6171875;28;20031;-78
2023/04/08 05:30:07;;;;;;;32.35;16.00;;;;;;;;;;6170810;28;20069;-80
2023/04/08 05:33:07;;;;;;;28.25;15.52;;;;;;;;;;6175063;28;20038;-80
2023/04/08 05:36:09;;;;;;;30.10;15.38;;;;;;;;;;6172419;28;20397;-79
2023/04/08 05:39:09;;;;;;;30.15;15.35;;;;;;;;;;6168444;28;20039;-80
2023/04/08 05:42:11;;;;;;;27.93;15.10;;;;;;;;;;6173158;28;20084;-80
2023/04/08 05:45:11;;;;;;;27.63;16.05;;;;;;;;;;6170727;28;20027;-80
2023/04/08 05:48:12;;;;;;;29.88;17.40;;;;;;;;;;6165222;28;20030;-81
2023/04/08 05:51:16;;;;;;;25.83;13.67;;;;;;;;;;6168406;28;20051;-82
2023/04/08 05:54:16;;;;;;;29.85;15.85;;;;;;;;;;6170384;28;20026;-80
2023/04/08 05:57:17;;;;;;;29.87;16.30;;;;;;;;;;6171969;28;20019;-79
2023/04/08 06:00:18;;;;;;;27.20;15.97;;;;;;;;;;6158196;28;20026;-80
2023/04/08 06:03:19;;;;;;;28.55;16.65;;;;;;;;;;6178494;28;20030;-80
2023/04/08 06:06:19;;;;;;;27.27;15.80;;;;;;;;;;6175158;28;20098;-81
2023/04/08 06:09:19;;;;;;;27.83;15.73;;;;;;;;;;6173670;28;20019;-80
2023/04/08 06:12:19;;;;;;;29.33;17.37;;;;;;;;;;6148010;29;20122;-81
2023/04/08 06:15:20;;;;;;;29.23;17.10;;;;;;;;;;6147741;29;20020;-80
2023/04/08 06:18:20;;;;;;;30.37;18.30;;;;;;;;;;6164593;28;20034;-79
2023/04/08 06:21:20;;;;;;;28.47;17.30;;;;;;;;;;6149643;28;20023;-80
2023/04/08 06:24:20;;;;;;;24.50;16.13;;;;;;;;;;6149675;28;20020;-80
2023/04/08 06:27:21;;;;;;;32.87;17.93;;;;;;;;;;6149436;28;20015;-79
2023/04/08 06:30:21;;;;;;;32.33;16.63;;;;;;;;;;6149704;28;20397;-80
2023/04/08 06:33:21;;;;;;;31.13;17.87;;;;;;;;;;6148686;28;20058;-79
2023/04/08 06:36:21;;;;;;;32.13;18.33;;;;;;;;;;6150452;28;20035;-80
2023/04/08 06:39:22;;;;;;;30.20;17.95;;;;;;;;;;6149285;28;20035;-80
2023/04/08 06:42:22;;;;;;;27.17;15.67;;;;;;;;;;6145187;28;20031;-80
2023/04/08 06:45:22;;;;;;;26.23;15.90;;;;;;;;;;6149180;28;20027;-79
2023/04/08 06:48:29;;;;;;;27.80;17.90;;;;;;;;;;6144784;28;20131;-80
2023/04/08 06:51:30;;;;;;;25.88;15.02;;;;;;;;;;6161735;28;20030;-81
2023/04/08 06:54:30;;;;;;;27.70;17.23;;;;;;;;;;6143111;28;20548;-79
2023/04/08 06:57:30;;;;;;;26.55;14.75;;;;;;;;;;6156511;28;20027;-79
2023/04/08 07:00:31;;;;;;;26.77;16.48;;;;;;;;;;6148587;28;20125;-80
2023/04/08 07:03:31;;;;;;;27.17;17.40;;;;;;;;;;6145083;28;20015;-80
2023/04/08 07:06:31;;;;;;;23.75;14.40;;;;;;;;;;6163371;28;20035;-80
2023/04/08 07:09:31;;;;;;;26.53;15.43;;;;;;;;;;6161785;28;20031;-80
2023/04/08 07:12:31;;;;;;;26.77;16.53;;;;;;;;;;6146258;28;20343;-79
2023/04/08 07:15:31;;;;;;;24.95;16.05;;;;;;;;;;6147460;28;20304;-80
2023/04/08 07:18:32;;;;;;;26.83;16.80;;;;;;;;;;6163642;28;20557;-80
2023/04/08 07:21:32;;;;;;;22.87;13.63;;;;;;;;;;6148123;28;20035;-79
2023/04/08 07:24:33;;;;;;;19.67;12.02;;;;;;;;;;6148231;28;20023;-79
2023/04/08 07:27:33;;;;;;;22.20;13.43;;;;;;;;;;6148891;28;20049;-80
2023/04/08 07:30:33;;;;;;;24.27;15.17;;;;;;;;;;6163321;28;20041;-79
2023/04/08 07:33:33;;;;;;;21.00;13.00;;;;;;;;;;6148740;29;20378;-79
2023/04/08 07:36:34;;;;;;;21.50;13.90;;;;;;;;;;6151473;28;20019;-79
2023/04/08 07:39:34;;;;;;;22.57;14.67;;;;;;;;;;6164593;28;20432;-79
2023/04/08 07:42:34;;;;;;;24.03;15.13;;;;;;;;;;6147212;28;20058;-79
2023/04/08 07:45:34;;;;;;;28.03;16.07;;;;;;;;;;6162200;28;20039;-79
2023/04/08 07:48:35;;;;;;;18.17;12.47;;;;;;;;;;6146616;28;20024;-80
2023/04/08 07:51:35;;;;;;;19.57;12.50;;;;;;;;;;6148149;28;20031;-80
2023/04/08 07:54:36;;;;;;;20.98;14.02;;;;;;;;;;6147956;28;20043;-79
2023/04/08 07:57:36;;;;;;;22.30;14.33;;;;;;;;;;6147704;28;20417;-80
2023/04/08 08:00:36;;;;;;;23.00;13.87;;;;;;;;;;6161496;28;20023;-79
2023/04/08 08:03:37;;;;;;;20.70;13.70;;;;;;;;;;6149888;28;20060;-78
2023/04/08 08:06:39;;;;;;;23.07;14.13;;;;;;;;;;6146868;28;20449;-80
2023/04/08 08:09:39;;;;;;;22.38;13.82;;;;;;;;;;6143205;28;20494;-79
2023/04/08 08:12:39;;;;;;;24.87;14.40;;;;;;;;;;6166954;28;20054;-78
2023/04/08 08:15:40;;;;;;;22.40;14.43;;;;;;;;;;6170664;28;20102;-80
2023/04/08 08:18:40;;;;;;;16.97;11.67;;;;;;;;;;6169979;28;20034;-80
2023/04/08 08:21:40;;;;;;;18.10;11.60;;;;;;;;;;6170494;28;20023;-79
2023/04/08 08:24:41;;;;;;;21.17;12.57;;;;;;;;;;6171331;28;20023;-80
2023/04/08 08:27:41;;;;;;;19.60;11.10;;;;;;;;;;6171233;28;20094;-78
2023/04/08 08:30:43;;;;;;;19.33;11.60;;;;;;;;;;6169501;28;20027;-78
2023/04/08 08:33:43;;;;;;;16.70;10.85;;;;;;;;;;6170374;28;20033;-80
2023/04/08 08:36:43;;;;;;;18.37;11.60;;;;;;;;;;6174222;28;20023;-80
2023/04/08 08:39:43;;;;;;;19.03;12.77;;;;;;;;;;6170885;28;20496;-80
2023/04/08 08:42:51;;;;;;;19.53;12.60;;;;;;;;;;6170779;28;20026;-80
2023/04/08 08:45:51;;;;;;;19.15;12.68;;;;;;;;;;6169756;28;20117;-79
2023/04/08 08:48:51;;;;;;;19.27;12.33;;;;;;;;;;6169678;28;20054;-80
2023/04/08 08:51:53;;;;;;;20.63;12.63;;;;;;;;;;6170576;28;20465;-80
2023/04/08 08:54:57;;;;;;;15.70;9.35;;;;;;;;;;6171165;28;20023;-77
2023/04/08 08:58:00;;;;;;;13.07;9.30;;;;;;;;;;6170220;28;20237;-80
2023/04/08 09:01:00;;;;;;;15.57;10.52;;;;;;;;;;6170369;28;20026;-79
2023/04/08 09:04:08;;;;;;;17.57;12.27;;;;;;;;;;6171084;28;20018;-77
2023/04/08 09:07:12;;;;;;;18.77;12.23;;;;;;;;;;6170124;28;20049;-77
2023/04/08 09:10:12;;;;;;;17.63;11.02;;;;;;;;;;6166407;28;20030;-77
2023/04/08 09:13:13;;;;;;;18.23;12.38;;;;;;;;;;6168147;28;20074;-78
2023/04/08 09:16:17;;;;;;;18.83;11.50;;;;;;;;;;6169982;28;20039;-78
2023/04/08 09:19:17;;;;;;;17.08;10.82;;;;;;;;;;6169375;28;20026;-78
2023/04/08 09:22:17;;;;;;;13.70;9.33;;;;;;;;;;6169882;28;20035;-78
2023/04/08 09:25:21;;;;;;;18.60;11.32;;;;;;;;;;6170146;28;20117;-78
2023/04/08 09:28:22;;;;;;;12.75;9.10;;;;;;;;;;6170428;28;20501;-78
2023/04/08 09:31:23;;;;;;;15.97;9.80;;;;;;;;;;6171053;28;20014;-77
2023/04/08 09:34:24;;;;;;;16.67;10.98;;;;;;;;;;6176429;28;20102;-77
2023/04/08 09:37:25;;;;;;;17.55;11.32;;;;;;;;;;6182514;28;20557;-78
2023/04/08 09:40:26;;;;;;;16.57;11.07;;;;;;;;;;6176101;28;20034;-78
2023/04/08 09:43:26;;;;;;;17.00;10.70;;;;;;;;;;6175647;28;20110;-78
2023/04/08 09:46:32;;;;;;;16.97;10.93;;;;;;;;;;6175310;28;20021;-78
2023/04/08 09:49:36;;;;;;;13.55;9.25;;;;;;;;;;6174919;28;20038;-78
2023/04/08 09:52:42;;;;;;;15.55;9.40;;;;;;;;;;6173155;28;20027;-79
2023/04/08 09:55:45;;;;;;;15.52;9.93;;;;;;;;;;6174625;28;20019;-78
2023/04/08 09:58:51;;;;;;;15.73;10.18;;;;;;;;;;6174675;28;20030;-78
2023/04/08 10:01:55;;;;;;;15.95;9.68;;;;;;;;;;6174376;28;20018;-78
2023/04/08 10:04:57;;;;;;;15.05;10.18;;;;;;;;;;6175354;28;20555;-78
2023/04/08 10:07:57;;;;;;;18.55;11.88;;;;;;;;;;6169493;28;20060;-78
2023/04/08 10:10:57;;;;;;;16.43;10.40;;;;;;;;;;6174390;28;20406;-78
2023/04/08 10:13:58;;;;;;;18.87;13.00;;;;;;;;;;6174002;28;20110;-78
2023/04/08 10:17:17;;;;;;;18.77;12.37;;;;;;;;;;6173484;28;20077;-78
2023/04/08 10:20:35;;;;;;;17.67;12.27;;;;;;;;;;6174356;28;20030;-79
2023/04/08 10:23:55;;;;;;;18.10;12.10;;;;;;;;;;6171680;28;20030;-79
2023/04/08 10:26:56;;;;;;;17.65;11.95;;;;;;;;;;6173202;28;20460;-79
2023/04/08 10:29:57;;;;;;;18.48;12.25;;;;;;;;;;6173936;28;20031;-79
2023/04/08 10:33:00;;;;;;;22.02;13.63;;;;;;;;;;6173385;28;20489;-79
2023/04/08 10:36:10;;;;;;;23.08;13.10;;;;;;;;;;6175735;28;20090;-79
2023/04/08 10:39:11;;;;;;;17.02;11.57;;;;;;;;;;6171449;28;20481;-79
2023/04/08 10:42:11;;;;;;;16.60;11.43;;;;;;;;;;6172095;28;20037;-77
2023/04/08 10:45:16;;;;;;;16.07;11.37;;;;;;;;;;6173105;28;20485;-79
2023/04/08 10:48:18;;;;;;;15.93;10.60;;;;;;;;;;6173419;28;20034;-78
2023/04/08 10:51:18;;;;;;;15.27;10.55;;;;;;;;;;6168240;28;20019;-78
2023/04/08 10:54:18;;;;;;;17.97;12.77;;;;;;;;;;6173121;28;20157;-79
2023/04/08 10:57:24;;;;;;;16.77;11.83;;;;;;;;;;6173735;28;20199;-78
2023/04/08 11:00:39;;;;;;;20.23;13.63;;;;;;;;;;6172442;28;20027;-78
2023/04/08 11:03:40;;;;;;;19.42;13.35;;;;;;;;;;6173785;28;20041;-78
2023/04/08 11:06:43;;;;;;;18.50;12.50;;;;;;;;;;6172495;28;20030;-79
2023/04/08 11:09:43;;;;;;;17.15;11.30;;;;;;;;;;6171562;28;20055;-80
2023/04/08 11:12:44;;;;;;;19.23;12.10;;;;;;;;;;6173258;28;20046;-79
2023/04/08 11:15:44;;;;;;;18.57;12.60;;;;;;;;;;6173405;28;20045;-79
2023/04/08 11:18:44;;;;;;;18.67;12.70;;;;;;;;;;6172777;28;20015;-79
2023/04/08 11:21:45;;;;;;;17.10;11.40;;;;;;;;;;6173053;28;20033;-78
2023/04/08 11:24:46;;;;;;;17.77;11.90;;;;;;;;;;6173052;28;20023;-79
2023/04/08 11:27:47;;;;;;;20.90;12.53;;;;;;;;;;6172726;28;20023;-79
2023/04/08 11:30:48;;;;;;;22.77;14.25;;;;;;;;;;6172449;28;20397;-79
2023/04/08 11:33:52;;;;;;;21.30;13.53;;;;;;;;;;6176398;28;20042;-79
2023/04/08 11:36:52;;;;;;;18.35;12.23;;;;;;;;;;6172194;28;20114;-79
2023/04/08 11:39:56;;;;;;;21.50;13.10;;;;;;;;;;6172145;28;20035;-80
2023/04/08 11:42:56;;;;;;;31.85;18.00;;;;;;;;;;6170728;28;20023;-79
2023/04/08 11:45:56;;;;;;;17.33;12.33;;;;;;;;;;6170915;28;20053;-79
2023/04/08 11:49:00;;;;;;;20.07;14.13;;;;;;;;;;6153240;28;20449;-79
2023/04/08 11:52:01;;;;;;;22.92;14.43;;;;;;;;;;6170366;28;20105;-79
2023/04/08 11:55:03;;;;;;;19.17;12.43;;;;;;;;;;6170161;28;20099;-80
2023/04/08 11:58:04;;;;;;;19.65;12.75;;;;;;;;;;6167944;28;20019;-79
2023/04/08 12:01:05;;;;;;;21.55;12.35;;;;;;;;;;6165568;28;20398;-79
2023/04/08 12:04:08;;;;;;;17.77;12.17;;;;;;;;;;6171440;28;20022;-79
2023/04/08 12:07:09;;;;;;;20.23;13.30;;;;;;;;;;6169745;28;20050;-79
2023/04/08 12:10:10;;;;;;;22.17;14.30;;;;;;;;;;6170605;28;20015;-78
2023/04/08 12:13:10;;;;;;;22.10;13.67;;;;;;;;;;6169365;28;20086;-79
2023/04/08 12:16:12;;;;;;;21.57;14.23;;;;;;;;;;6167841;28;20026;-78
2023/04/08 12:19:15;;;;;;;27.75;16.38;;;;;;;;;;6164374;28;20366;-78
2023/04/08 12:22:15;;;;;;;23.48;14.25;;;;;;;;;;6169305;28;20457;-78
2023/04/08 12:25:15;;;;;;;23.27;14.07;;;;;;;;;;6168950;28;20034;-78
2023/04/08 12:28:15;;;;;;;21.42;12.82;;;;;;;;;;6168577;28;20102;-78
2023/04/08 12:31:16;;;;;;;22.50;14.50;;;;;;;;;;6168732;28;20019;-77
2023/04/08 12:34:16;;;;;;;21.27;13.80;;;;;;;;;;6171751;28;20117;-78
2023/04/08 12:37:17;;;;;;;22.20;12.40;;;;;;;;;;6168327;28;20046;-79
2023/04/08 12:40:18;;;;;;;20.90;13.67;;;;;;;;;;6167596;28;20070;-78
2023/04/08 12:43:19;;;;;;;21.30;13.10;;;;;;;;;;6168765;28;20053;-78
2023/04/08 12:46:20;;;;;;;24.40;13.15;;;;;;;;;;6168224;28;20015;-77
2023/04/08 12:49:20;;;;;;;24.47;14.43;;;;;;;;;;6167994;28;20122;-78
2023/04/08 12:52:20;;;;;;;21.70;13.47;;;;;;;;;;6167607;28;20019;-78
2023/04/08 12:55:23;;;;;;;21.97;13.20;;;;;;;;;;6166835;28;20025;-78
2023/04/08 12:58:26;;;;;;;36.40;18.90;;;;;;;;;;6166594;28;20026;-78
2023/04/08 13:01:27;;;;;;;42.45;20.35;;;;;;;;;;6167744;28;20098;-78
2023/04/08 13:04:28;;;;;;;24.70;15.53;;;;;;;;;;6173008;28;20584;-79
2023/04/08 13:07:28;;;;;;;26.20;15.98;;;;;;;;;;6167693;28;20023;-78
2023/04/08 13:10:29;;;;;;;26.23;14.18;;;;;;;;;;6168054;28;20042;-78
2023/04/08 13:13:29;;;;;;;26.63;15.87;;;;;;;;;;6167198;28;20473;-79
2023/04/08 13:16:29;;;;;;;19.97;14.00;;;;;;;;;;6166517;28;20030;-78
2023/04/08 13:19:30;;;;;;;25.23;14.63;;;;;;;;;;6165857;28;20100;-79
2023/04/08 13:22:31;;;;;;;25.60;16.17;;;;;;;;;;6166200;28;20030;-79
2023/04/08 13:25:31;;;;;;;30.00;16.67;;;;;;;;;;6168152;28;20047;-79
2023/04/08 13:28:31;;;;;;;24.57;14.50;;;;;;;;;;6166986;28;20560;-79
2023/04/08 13:31:31;;;;;;;27.20;15.40;;;;;;;;;;6167930;28;20022;-79
2023/04/08 13:34:31;;;;;;;26.03;15.93;;;;;;;;;;6173680;28;20456;-79
2023/04/08 13:37:32;;;;;;;29.55;16.27;;;;;;;;;;6168296;28;20019;-79
2023/04/08 13:40:32;;;;;;;28.43;16.77;;;;;;;;;;6150407;28;20441;-79
2023/04/08 13:43:32;;;;;;;28.37;17.63;;;;;;;;;;6168105;28;20026;-79
2023/04/08 13:46:32;;;;;;;27.70;17.88;;;;;;;;;;6167847;28;20025;-79
2023/04/08 13:49:32;;;;;;;30.13;18.47;;;;;;;;;;6168156;28;20549;-79
2023/04/08 13:52:33;;;;;;;28.95;18.67;;;;;;;;;;6168320;28;20081;-79
2023/04/08 13:55:33;;;;;;;32.30;17.87;;;;;;;;;;6169042;28;20504;-79
2023/04/08 13:58:33;;;;;;;32.80;19.90;;;;;;;;;;6168205;28;20455;-79
2023/04/08 14:01:33;;;;;;;32.58;19.70;;;;;;;;;;6168253;28;20030;-78
2023/04/08 14:04:33;;;;;;;33.67;21.05;;;;;;;;;;6165973;28;20463;-79
2023/04/08 14:07:34;;;;;;;30.10;17.67;;;;;;;;;;6165585;28;20019;-79
2023/04/08 14:10:34;;;;;;;28.87;18.00;;;;;;;;;;6168163;28;20485;-79
2023/04/08 14:13:34;;;;;;;34.87;19.60;;;;;;;;;;6166267;28;20045;-78
2023/04/08 14:16:35;;;;;;;29.85;17.92;;;;;;;;;;6167027;28;20076;-79
2023/04/08 14:19:35;;;;;;;33.23;19.63;;;;;;;;;;6173392;28;20038;-79
2023/04/08 14:22:35;;;;;;;31.10;19.03;;;;;;;;;;6172987;28;20030;-79
2023/04/08 14:25:36;;;;;;;28.03;17.80;;;;;;;;;;6173444;28;20018;-79
2023/04/08 14:28:36;;;;;;;30.70;19.17;;;;;;;;;;6168198;28;20023;-78
2023/04/08 14:31:36;;;;;;;33.03;19.37;;;;;;;;;;6172049;28;20489;-78
2023/04/08 14:34:36;;;;;;;30.03;19.53;;;;;;;;;;6172593;28;20026;-78
2023/04/08 14:37:37;;;;;;;30.02;19.38;;;;;;;;;;6172044;28;20022;-79
2023/04/08 14:40:37;;;;;;;33.03;20.37;;;;;;;;;;6170600;28;20057;-78
2023/04/08 14:43:38;;;;;;;33.03;18.08;;;;;;;;;;6172421;28;20069;-78
2023/04/08 14:46:38;;;;;;;33.03;20.43;;;;;;;;;;6172625;28;20022;-78
2023/04/08 14:49:39;;;;;;;31.97;19.90;;;;;;;;;;6171164;28;20023;-78
2023/04/08 14:52:39;;;;;;;28.77;17.57;;;;;;;;;;6170733;28;20026;-78
2023/04/08 14:55:40;;;;;;;29.43;17.63;;;;;;;;;;6171165;28;20027;-79
2023/04/08 14:58:40;;;;;;;28.47;17.60;;;;;;;;;;6177386;28;20037;-79
2023/04/08 15:01:41;;;;;;;35.90;18.97;;;;;;;;;;6170152;28;20058;-79
2023/04/08 15:04:41;;;;;;;30.17;18.50;;;;;;;;;;6170379;28;20026;-78
2023/04/08 15:07:41;;;;;;;34.50;17.35;;;;;;;;;;6170029;28;20027;-77
2023/04/08 15:10:43;;;;;;;28.03;17.47;;;;;;;;;;6172413;28;20054;-79
2023/04/08 15:13:43;;;;;;;32.47;18.33;;;;;;;;;;6172315;28;20019;-79
2023/04/08 15:16:43;;;;;;;28.07;17.87;;;;;;;;;;6172756;28;20397;-79
2023/04/08 15:19:44;;;;;;;27.63;16.53;;;;;;;;;;6172319;28;20577;-78
2023/04/08 15:22:44;;;;;;;28.87;16.27;;;;;;;;;;6154924;28;20055;-79
2023/04/08 15:25:45;;;;;;;25.60;15.43;;;;;;;;;;6169421;28;20023;-78
2023/04/08 15:28:45;;;;;;;27.47;15.13;;;;;;;;;;6170537;28;20113;-79
2023/04/08 15:31:45;;;;;;;25.67;15.98;;;;;;;;;;6170322;28;20103;-78
2023/04/08 15:34:46;;;;;;;31.95;17.45;;;;;;;;;;6178315;28;20458;-78
2023/04/08 15:37:47;;;;;;;29.43;17.60;;;;;;;;;;6172363;28;20094;-78
2023/04/08 15:40:47;;;;;;;28.67;14.27;;;;;;;;;;6154935;28;20033;-79
2023/04/08 15:43:47;;;;;;;26.27;15.35;;;;;;;;;;6171922;28;20019;-79
2023/04/08 15:46:48;;;;;;;26.57;14.83;;;;;;;;;;6172659;28;20386;-79
2023/04/08 15:49:50;;;;;;;30.20;16.70;;;;;;;;;;6172145;28;20027;-79
2023/04/08 15:52:51;;;;;;;24.77;15.98;;;;;;;;;;6170472;28;20011;-79
2023/04/08 15:55:52;;;;;;;25.60;15.77;;;;;;;;;;6172238;28;20030;-79
2023/04/08 15:58:52;;;;;;;32.53;17.67;;;;;;;;;;6154786;28;20389;-79
2023/04/08 16:01:52;;;;;;;28.15;15.80;;;;;;;;;;6170122;28;20045;-79
2023/04/08 16:04:52;;;;;;;27.40;16.40;;;;;;;;;;6171702;28;20300;-78
2023/04/08 16:07:52;;;;;;;28.88;16.83;;;;;;;;;;6169034;28;20033;-78
2023/04/08 16:10:58;;;;;;;29.77;17.77;;;;;;;;;;6171886;28;20100;-79
2023/04/08 16:13:58;;;;;;;29.45;16.92;;;;;;;;;;6169637;28;20423;-79
2023/04/08 16:16:58;;;;;;;30.90;17.55;;;;;;;;;;6171413;28;20338;-79
2023/04/08 16:20:00;;;;;;;32.27;17.20;;;;;;;;;;6171245;28;20023;-79
2023/04/08 16:23:00;;;;;;;35.45;20.95;;;;;;;;;;6171302;28;20015;-79
2023/04/08 16:26:01;;;;;;;31.23;19.87;;;;;;;;;;6171531;28;20500;-79
2023/04/08 16:29:01;;;;;;;30.37;19.63;;;;;;;;;;6170511;28;20421;-79
2023/04/08 16:32:01;;;;;;;31.80;19.17;;;;;;;;;;6171163;28;20381;-79
2023/04/08 16:35:01;;;;;;;32.30;19.50;;;;;;;;;;6172574;28;20351;-79
2023/04/08 16:38:02;;;;;;;31.80;18.97;;;;;;;;;;6169878;28;20043;-79
2023/04/08 16:41:04;;;;;;;37.73;20.07;;;;;;;;;;6165885;28;20033;-79
2023/04/08 16:44:05;;;;;;;35.00;19.70;;;;;;;;;;6168340;28;20472;-79
2023/04/08 16:47:05;;;;;;;30.17;18.90;;;;;;;;;;6168979;28;20030;-77
2023/04/08 16:50:08;;;;;;;33.20;21.27;;;;;;;;;;6170406;28;20029;-79
2023/04/08 16:53:09;;;;;;;30.45;20.02;;;;;;;;;;6172490;28;20089;-79
2023/04/08 16:56:13;;;;;;;35.67;22.60;;;;;;;;;;6170208;28;20031;-79
2023/04/08 16:59:13;;;;;;;39.58;20.50;;;;;;;;;;6165037;28;20026;-79
2023/04/08 17:02:15;;;;;;;32.35;19.10;;;;;;;;;;6169061;28;20504;-79
2023/04/08 17:05:16;;;;;;;34.90;20.63;;;;;;;;;;6162203;28;20088;-79
2023/04/08 17:08:17;;;;;;;34.33;22.05;;;;;;;;;;6165329;28;20110;-79
2023/04/08 17:11:17;;;;;;;38.90;23.42;;;;;;;;;;6168090;28;20118;-78
2023/04/08 17:14:19;;;;;;;36.40;22.50;;;;;;;;;;6150068;28;20034;-79
2023/04/08 17:17:19;;;;;;;33.35;21.48;;;;;;;;;;6147640;28;20410;-79
2023/04/08 17:20:20;;;;;;;37.03;21.23;;;;;;;;;;6166441;28;20031;-79
2023/04/08 17:23:20;;;;;;;37.97;20.93;;;;;;;;;;6168337;28;20118;-78
2023/04/08 17:26:22;;;;;;;39.80;23.10;;;;;;;;;;6166867;28;20007;-77
2023/04/08 17:29:22;;;;;;;;;;;;;;;;;;6166973;28;20472;-78
2023/04/08 17:32:23;;;;;;;41.40;24.23;;;;;;;;;;6164987;28;19921;-78
2023/04/08 17:35:23;;;;;;;37.47;22.15;;;;;;;;;;6172541;28;20019;-79